createdAt,value
2018-12-13T00:09:35.672Z,2.60
2018-12-13T00:19:39.778Z,2.70
2018-12-13T00:29:43.904Z,2.60
2018-12-13T00:39:48.069Z,2.60
2018-12-13T00:49:52.200Z,2.60
2018-12-13T00:59:56.272Z,2.80
2018-12-13T01:10:00.361Z,2.90
2018-12-13T01:20:04.916Z,3.00
2018-12-13T01:30:09.138Z,2.90
2018-12-13T01:40:13.547Z,3.00
2018-12-13T01:50:17.792Z,3.00
2018-12-13T02:00:22.003Z,3.00
2018-12-13T02:10:26.221Z,3.00
2018-12-13T02:20:30.279Z,3.10
2018-12-13T02:30:34.364Z,2.70
2018-12-13T02:40:38.454Z,2.60
2018-12-13T02:50:42.594Z,2.60
2018-12-13T03:00:46.777Z,2.40
2018-12-13T03:10:50.876Z,2.40
2018-12-13T03:20:54.967Z,2.40
2018-12-13T03:30:59.045Z,2.40
2018-12-13T03:41:03.248Z,2.40
2018-12-13T03:51:07.384Z,2.60
2018-12-13T04:01:11.528Z,2.50
2018-12-13T04:11:15.618Z,2.30
2018-12-13T04:21:19.738Z,2.10
2018-12-13T04:31:23.843Z,2.10
2018-12-13T04:41:27.972Z,2.10
2018-12-13T04:51:32.094Z,2.20
2018-12-13T05:01:36.239Z,2.00
2018-12-13T05:11:40.587Z,2.00
2018-12-13T05:21:44.667Z,1.90
2018-12-13T05:31:49.887Z,2.30
2018-12-13T05:41:54.217Z,2.30
2018-12-13T05:51:58.367Z,2.00
2018-12-13T06:02:02.769Z,2.20
2018-12-13T06:12:07.087Z,2.00
2018-12-13T06:22:11.194Z,1.80
2018-12-13T06:32:15.383Z,1.70
2018-12-13T06:42:19.487Z,1.70
2018-12-13T06:52:23.574Z,1.80
2018-12-13T07:02:27.709Z,1.80
2018-12-13T07:12:31.993Z,2.20
2018-12-13T07:22:36.283Z,1.90
2018-12-13T07:32:40.447Z,1.70
2018-12-13T07:42:44.657Z,2.00
2018-12-13T07:52:48.827Z,1.80
2018-12-13T08:02:52.999Z,1.90
2018-12-13T08:13:00.899Z,2.10
2018-12-13T08:23:05.402Z,2.20
2018-12-13T08:33:09.686Z,2.40
2018-12-13T08:43:13.833Z,2.50
2018-12-13T08:53:18.057Z,2.40
2018-12-13T09:03:22.347Z,2.50
2018-12-13T09:13:26.486Z,2.30
2018-12-13T09:23:30.870Z,2.70
2018-12-13T09:33:35.048Z,2.50
2018-12-13T09:43:39.253Z,2.50
2018-12-13T09:53:43.546Z,2.40
2018-12-13T10:03:47.871Z,2.50
2018-12-13T10:13:52.082Z,2.60
2018-12-13T10:23:56.259Z,2.60
2018-12-13T10:34:00.432Z,2.60
2018-12-13T10:44:04.971Z,2.70
2018-12-13T10:54:09.098Z,2.80
2018-12-13T11:04:13.317Z,2.90
2018-12-13T11:14:17.499Z,2.80
2018-12-13T11:24:21.883Z,2.60
2018-12-13T11:34:26.067Z,2.70
2018-12-13T11:44:30.192Z,2.50
2018-12-13T11:54:50.003Z,2.50
2018-12-13T12:04:54.156Z,2.20
2018-12-13T12:14:58.398Z,2.20
2018-12-13T12:25:02.785Z,2.40
2018-12-13T12:35:07.225Z,2.50
2018-12-13T12:45:11.544Z,2.50
2018-12-13T12:55:15.789Z,2.50
2018-12-13T13:05:19.978Z,2.80
2018-12-13T13:15:24.428Z,2.90
2018-12-13T13:25:28.591Z,2.50
2018-12-13T13:35:32.699Z,2.30
2018-12-13T13:45:36.824Z,2.10
2018-12-13T13:55:40.999Z,1.90
2018-12-13T14:05:45.138Z,1.90
2018-12-13T14:15:50.378Z,1.70
2018-12-13T14:25:55.438Z,1.50
2018-12-13T14:35:59.554Z,1.50
2018-12-13T14:46:04.821Z,1.60
2018-12-13T14:56:09.228Z,1.80
2018-12-13T15:06:13.451Z,1.60
2018-12-13T15:16:17.733Z,2.00
2018-12-13T15:26:21.899Z,2.10
2018-12-13T15:36:26.026Z,2.00
2018-12-13T15:46:31.275Z,2.10
2018-12-13T15:56:35.521Z,2.20
2018-12-13T16:06:39.771Z,2.20
2018-12-13T16:16:44.096Z,2.20
2018-12-13T16:26:48.498Z,1.60
2018-12-13T16:36:52.913Z,2.40
2018-12-13T16:46:57.338Z,2.20
2018-12-13T16:57:01.506Z,2.30
2018-12-13T17:07:05.742Z,2.30
2018-12-13T17:17:10.007Z,2.70
2018-12-13T17:27:14.275Z,2.30
2018-12-13T17:37:18.433Z,1.90
2018-12-13T17:47:22.673Z,2.30
2018-12-13T17:57:26.956Z,2.10
2018-12-13T18:07:31.167Z,1.80
2018-12-13T18:17:35.576Z,1.50
2018-12-13T18:27:39.879Z,1.20
2018-12-13T18:37:44.212Z,1.30
2018-12-13T18:47:48.742Z,1.50
2018-12-13T18:57:52.881Z,1.50
2018-12-13T19:07:57.266Z,1.50
2018-12-13T19:18:01.472Z,1.40
2018-12-13T19:28:07.113Z,1.50
2018-12-13T19:38:11.669Z,1.50
2018-12-13T19:48:15.855Z,1.50
2018-12-13T19:58:20.028Z,1.40
2018-12-13T20:08:24.156Z,1.30
2018-12-13T20:18:28.560Z,1.40
2018-12-13T20:28:32.842Z,1.20
2018-12-13T20:38:36.922Z,1.20
2018-12-13T20:48:41.661Z,1.10
2018-12-13T20:58:45.829Z,1.00
2018-12-13T21:08:50.003Z,1.10
2018-12-13T21:18:54.274Z,1.00
2018-12-13T21:28:58.403Z,1.00
2018-12-13T21:39:02.552Z,1.30
2018-12-13T21:49:06.839Z,1.30
2018-12-13T21:59:11.047Z,1.10
2018-12-13T22:09:15.152Z,0.90
2018-12-13T22:19:19.315Z,1.20
2018-12-13T22:29:23.454Z,1.70
2018-12-13T22:39:27.581Z,1.80
2018-12-13T22:49:31.737Z,1.80
2018-12-13T22:59:35.878Z,1.80
2018-12-13T23:09:39.993Z,1.90
2018-12-13T23:19:44.162Z,2.00
2018-12-13T23:29:48.404Z,1.90
2018-12-13T23:39:52.586Z,1.90
2018-12-13T23:49:56.748Z,1.70
